sensor_id;sensor_type;location;lat;lon;timestamp;pressure;altitude;pressure_sealevel;temperature;humidity
74552;BME280;63025;55.472;38.432;2023-06-14T00:01:58;100589.50;;;10.32;68.86
74552;BME280;63025;55.472;38.432;2023-06-14T00:04:24;100589.03;;;10.28;68.87
74552;BME280;63025;55.472;38.432;2023-06-14T00:06:51;100592.31;;;10.23;68.87
74552;BME280;63025;55.472;38.432;2023-06-14T00:09:16;100590.22;;;10.19;68.78
74552;BME280;63025;55.472;38.432;2023-06-14T00:11:44;100588.91;;;10.15;68.70
74552;BME280;63025;55.472;38.432;2023-06-14T00:14:10;100593.19;;;10.09;68.95
74552;BME280;63025;55.472;38.432;2023-06-14T00:16:36;100597.31;;;10.05;68.97
74552;BME280;63025;55.472;38.432;2023-06-14T00:19:04;100600.34;;;10.02;69.09
74552;BME280;63025;55.472;38.432;2023-06-14T00:21:31;100601.56;;;10.00;69.22
74552;BME280;63025;55.472;38.432;2023-06-14T00:23:58;100597.81;;;9.94;69.37
74552;BME280;63025;55.472;38.432;2023-06-14T00:26:24;100598.84;;;9.93;69.20
74552;BME280;63025;55.472;38.432;2023-06-14T00:28:54;100593.84;;;9.90;68.97
74552;BME280;63025;55.472;38.432;2023-06-14T00:31:20;100593.38;;;9.86;69.22
74552;BME280;63025;55.472;38.432;2023-06-14T00:33:46;100590.91;;;9.85;68.96
74552;BME280;63025;55.472;38.432;2023-06-14T00:36:12;100597.13;;;9.85;69.39
74552;BME280;63025;55.472;38.432;2023-06-14T00:38:38;100586.09;;;9.80;69.57
74552;BME280;63025;55.472;38.432;2023-06-14T00:41:04;100591.28;;;9.82;69.40
74552;BME280;63025;55.472;38.432;2023-06-14T00:43:30;100595.00;;;9.81;69.33
74552;BME280;63025;55.472;38.432;2023-06-14T00:45:55;100596.38;;;9.77;69.65
74552;BME280;63025;55.472;38.432;2023-06-14T00:48:22;100594.09;;;9.74;69.44
74552;BME280;63025;55.472;38.432;2023-06-14T00:50:49;100594.94;;;9.74;69.41
74552;BME280;63025;55.472;38.432;2023-06-14T00:53:16;100586.41;;;9.71;69.89
74552;BME280;63025;55.472;38.432;2023-06-14T00:55:48;100591.78;;;9.71;70.12
74552;BME280;63025;55.472;38.432;2023-06-14T00:58:16;100586.41;;;9.71;69.83
74552;BME280;63025;55.472;38.432;2023-06-14T01:00:42;100589.66;;;9.66;69.69
74552;BME280;63025;55.472;38.432;2023-06-14T01:03:10;100593.56;;;9.64;69.78
74552;BME280;63025;55.472;38.432;2023-06-14T01:05:38;100595.44;;;9.63;69.78
74552;BME280;63025;55.472;38.432;2023-06-14T01:11:02;100600.69;;;9.56;70.36
74552;BME280;63025;55.472;38.432;2023-06-14T01:13:38;100605.69;;;9.60;70.58
74552;BME280;63025;55.472;38.432;2023-06-14T01:16:05;100601.16;;;9.60;70.67
74552;BME280;63025;55.472;38.432;2023-06-14T01:18:32;100602.66;;;9.63;70.21
74552;BME280;63025;55.472;38.432;2023-06-14T01:21:01;100606.16;;;9.63;70.34
74552;BME280;63025;55.472;38.432;2023-06-14T01:23:32;100614.03;;;9.65;70.67
74552;BME280;63025;55.472;38.432;2023-06-14T01:26:00;100609.03;;;9.62;70.35
74552;BME280;63025;55.472;38.432;2023-06-14T01:28:32;100612.72;;;9.61;70.41
74552;BME280;63025;55.472;38.432;2023-06-14T01:31:01;100610.69;;;9.63;70.43
74552;BME280;63025;55.472;38.432;2023-06-14T01:33:30;100606.59;;;9.67;70.64
74552;BME280;63025;55.472;38.432;2023-06-14T01:35:58;100607.88;;;9.71;70.53
74552;BME280;63025;55.472;38.432;2023-06-14T01:38:25;100605.84;;;9.73;70.28
74552;BME280;63025;55.472;38.432;2023-06-14T01:40:54;100605.06;;;9.79;70.63
74552;BME280;63025;55.472;38.432;2023-06-14T01:43:22;100595.25;;;9.86;70.51
74552;BME280;63025;55.472;38.432;2023-06-14T01:45:49;100600.50;;;9.94;70.21
74552;BME280;63025;55.472;38.432;2023-06-14T01:48:18;100593.97;;;10.03;70.11
74552;BME280;63025;55.472;38.432;2023-06-14T01:50:45;100597.91;;;10.07;70.33
74552;BME280;63025;55.472;38.432;2023-06-14T01:53:11;100590.91;;;10.06;70.00
74552;BME280;63025;55.472;38.432;2023-06-14T01:55:37;100602.25;;;10.08;70.20
74552;BME280;63025;55.472;38.432;2023-06-14T01:58:06;100598.19;;;10.12;70.12
74552;BME280;63025;55.472;38.432;2023-06-14T02:00:33;100601.59;;;10.21;70.21
74552;BME280;63025;55.472;38.432;2023-06-14T02:02:59;100603.94;;;10.30;69.86
74552;BME280;63025;55.472;38.432;2023-06-14T02:05:26;100599.25;;;10.39;70.04
74552;BME280;63025;55.472;38.432;2023-06-14T02:07:54;100600.19;;;10.53;69.44
74552;BME280;63025;55.472;38.432;2023-06-14T02:10:20;100591.41;;;10.65;69.57
74552;BME280;63025;55.472;38.432;2023-06-14T02:12:48;100597.28;;;10.76;69.58
74552;BME280;63025;55.472;38.432;2023-06-14T02:15:15;100595.88;;;10.86;69.10
74552;BME280;63025;55.472;38.432;2023-06-14T02:17:46;100599.06;;;10.96;69.21
74552;BME280;63025;55.472;38.432;2023-06-14T02:20:18;100599.53;;;11.07;68.95
74552;BME280;63025;55.472;38.432;2023-06-14T02:22:44;100607.03;;;11.18;68.87
74552;BME280;63025;55.472;38.432;2023-06-14T02:25:11;100602.75;;;11.30;68.96
74552;BME280;63025;55.472;38.432;2023-06-14T02:27:40;100606.72;;;11.40;68.45
74552;BME280;63025;55.472;38.432;2023-06-14T02:30:07;100609.66;;;11.52;68.51
74552;BME280;63025;55.472;38.432;2023-06-14T02:32:34;100603.66;;;11.63;68.38
74552;BME280;63025;55.472;38.432;2023-06-14T02:35:02;100615.56;;;11.75;68.24
74552;BME280;63025;55.472;38.432;2023-06-14T02:37:32;100613.94;;;11.88;68.08
74552;BME280;63025;55.472;38.432;2023-06-14T02:39:58;100609.59;;;12.00;67.75
74552;BME280;63025;55.472;38.432;2023-06-14T02:42:25;100607.97;;;12.12;67.75
74552;BME280;63025;55.472;38.432;2023-06-14T02:44:51;100619.38;;;12.27;67.88
74552;BME280;63025;55.472;38.432;2023-06-14T02:47:18;100612.13;;;12.41;67.68
74552;BME280;63025;55.472;38.432;2023-06-14T02:49:45;100610.69;;;12.52;67.40
74552;BME280;63025;55.472;38.432;2023-06-14T02:52:15;100618.75;;;12.65;66.83
74552;BME280;63025;55.472;38.432;2023-06-14T02:54:42;100613.97;;;12.80;66.54
74552;BME280;63025;55.472;38.432;2023-06-14T02:57:09;100621.00;;;12.94;65.89
74552;BME280;63025;55.472;38.432;2023-06-14T02:59:37;100622.19;;;13.11;65.78
74552;BME280;63025;55.472;38.432;2023-06-14T03:02:04;100619.66;;;13.30;65.39
74552;BME280;63025;55.472;38.432;2023-06-14T03:04:32;100618.38;;;13.45;65.08
74552;BME280;63025;55.472;38.432;2023-06-14T03:07:05;100620.00;;;13.59;64.86
74552;BME280;63025;55.472;38.432;2023-06-14T03:09:36;100619.47;;;13.76;64.49
74552;BME280;63025;55.472;38.432;2023-06-14T03:12:04;100597.81;;;13.89;64.98
74552;BME280;63025;55.472;38.432;2023-06-14T03:14:33;100611.00;;;14.04;64.89
74552;BME280;63025;55.472;38.432;2023-06-14T03:16:59;100606.72;;;14.21;64.19
74552;BME280;63025;55.472;38.432;2023-06-14T03:19:27;100608.66;;;14.39;62.92
74552;BME280;63025;55.472;38.432;2023-06-14T03:21:54;100604.84;;;14.53;62.64
74552;BME280;63025;55.472;38.432;2023-06-14T03:24:24;100609.69;;;14.69;62.13
74552;BME280;63025;55.472;38.432;2023-06-14T03:26:54;100611.22;;;14.83;61.66
74552;BME280;63025;55.472;38.432;2023-06-14T03:29:21;100615.44;;;14.97;61.42
74552;BME280;63025;55.472;38.432;2023-06-14T03:32:01;100602.50;;;15.18;60.37
74552;BME280;63025;55.472;38.432;2023-06-14T03:34:38;100611.47;;;15.36;60.19
74552;BME280;63025;55.472;38.432;2023-06-14T03:37:05;100602.09;;;15.51;59.68
74552;BME280;63025;55.472;38.432;2023-06-14T03:39:31;100606.78;;;15.62;59.75
74552;BME280;63025;55.472;38.432;2023-06-14T03:41:57;100603.44;;;15.78;59.44
74552;BME280;63025;55.472;38.432;2023-06-14T03:44:23;100605.28;;;15.96;59.33
74552;BME280;63025;55.472;38.432;2023-06-14T03:46:50;100599.19;;;16.12;58.67
74552;BME280;63025;55.472;38.432;2023-06-14T03:49:16;100603.72;;;16.30;58.23
74552;BME280;63025;55.472;38.432;2023-06-14T03:51:44;100601.97;;;16.47;57.83
74552;BME280;63025;55.472;38.432;2023-06-14T03:54:12;100603.38;;;16.61;56.92
74552;BME280;63025;55.472;38.432;2023-06-14T03:56:38;100606.50;;;16.76;56.05
74552;BME280;63025;55.472;38.432;2023-06-14T03:59:06;100609.09;;;16.95;55.70
74552;BME280;63025;55.472;38.432;2023-06-14T04:01:32;100605.66;;;17.11;55.33
74552;BME280;63025;55.472;38.432;2023-06-14T04:04:00;100605.50;;;17.29;55.13
74552;BME280;63025;55.472;38.432;2023-06-14T04:06:27;100610.78;;;17.36;54.28
74552;BME280;63025;55.472;38.432;2023-06-14T04:08:59;100606.53;;;17.40;53.73
74552;BME280;63025;55.472;38.432;2023-06-14T04:11:30;100607.22;;;17.47;53.18
74552;BME280;63025;55.472;38.432;2023-06-14T04:13:58;100607.34;;;17.52;52.69
74552;BME280;63025;55.472;38.432;2023-06-14T04:16:25;100605.69;;;17.63;52.67
74552;BME280;63025;55.472;38.432;2023-06-14T04:18:52;100601.84;;;17.75;52.14
74552;BME280;63025;55.472;38.432;2023-06-14T04:21:18;100606.72;;;17.90;52.06
74552;BME280;63025;55.472;38.432;2023-06-14T04:23:45;100598.75;;;18.00;51.82
74552;BME280;63025;55.472;38.432;2023-06-14T04:26:13;100594.66;;;18.14;51.75
74552;BME280;63025;55.472;38.432;2023-06-14T04:28:40;100595.97;;;18.28;51.64
74552;BME280;63025;55.472;38.432;2023-06-14T04:31:07;100597.22;;;18.38;51.04
74552;BME280;63025;55.472;38.432;2023-06-14T04:33:35;100596.59;;;18.47;50.64
74552;BME280;63025;55.472;38.432;2023-06-14T04:36:10;100600.06;;;18.59;50.49
74552;BME280;63025;55.472;38.432;2023-06-14T04:38:39;100599.97;;;18.71;50.23
74552;BME280;63025;55.472;38.432;2023-06-14T04:41:07;100602.25;;;18.79;49.78
74552;BME280;63025;55.472;38.432;2023-06-14T04:43:37;100604.06;;;18.90;49.29
74552;BME280;63025;55.472;38.432;2023-06-14T04:46:05;100604.78;;;19.02;49.15
74552;BME280;63025;55.472;38.432;2023-06-14T04:48:31;100596.16;;;19.11;48.66
74552;BME280;63025;55.472;38.432;2023-06-14T04:50:57;100602.28;;;19.18;48.67
74552;BME280;63025;55.472;38.432;2023-06-14T04:53:23;100598.47;;;19.19;47.32
74552;BME280;63025;55.472;38.432;2023-06-14T04:55:52;100591.31;;;19.34;47.60
74552;BME280;63025;55.472;38.432;2023-06-14T04:58:20;100602.19;;;19.51;47.78
74552;BME280;63025;55.472;38.432;2023-06-14T05:00:46;100594.69;;;19.63;46.98
74552;BME280;63025;55.472;38.432;2023-06-14T05:03:13;100594.50;;;19.70;46.53
74552;BME280;63025;55.472;38.432;2023-06-14T05:05:41;100587.19;;;19.75;45.87
74552;BME280;63025;55.472;38.432;2023-06-14T05:08:07;100590.81;;;19.81;46.43
74552;BME280;63025;55.472;38.432;2023-06-14T05:10:34;100592.56;;;19.92;46.66
74552;BME280;63025;55.472;38.432;2023-06-14T05:13:01;100590.69;;;19.98;46.48
74552;BME280;63025;55.472;38.432;2023-06-14T05:15:29;100588.56;;;20.05;45.83
74552;BME280;63025;55.472;38.432;2023-06-14T05:17:55;100591.88;;;20.07;45.45
74552;BME280;63025;55.472;38.432;2023-06-14T05:20:24;100584.66;;;20.23;45.89
74552;BME280;63025;55.472;38.432;2023-06-14T05:22:54;100585.00;;;20.31;45.50
74552;BME280;63025;55.472;38.432;2023-06-14T05:25:20;100578.00;;;20.40;45.19
74552;BME280;63025;55.472;38.432;2023-06-14T05:27:47;100586.28;;;20.50;45.30
74552;BME280;63025;55.472;38.432;2023-06-14T05:30:14;100583.88;;;20.59;44.41
74552;BME280;63025;55.472;38.432;2023-06-14T05:32:40;100582.63;;;20.77;44.06
74552;BME280;63025;55.472;38.432;2023-06-14T05:35:07;100582.09;;;20.80;43.80
74552;BME280;63025;55.472;38.432;2023-06-14T05:37:33;100575.00;;;20.79;42.74
74552;BME280;63025;55.472;38.432;2023-06-14T05:39:59;100581.88;;;20.86;42.44
74552;BME280;63025;55.472;38.432;2023-06-14T05:42:25;100584.13;;;20.95;42.53
74552;BME280;63025;55.472;38.432;2023-06-14T05:44:51;100585.22;;;20.99;42.01
74552;BME280;63025;55.472;38.432;2023-06-14T05:47:16;100588.28;;;21.07;41.81
74552;BME280;63025;55.472;38.432;2023-06-14T05:49:42;100582.53;;;21.09;41.52
74552;BME280;63025;55.472;38.432;2023-06-14T05:52:08;100581.44;;;21.10;41.07
74552;BME280;63025;55.472;38.432;2023-06-14T05:54:34;100583.69;;;21.18;40.75
74552;BME280;63025;55.472;38.432;2023-06-14T05:56:59;100585.44;;;21.34;41.33
74552;BME280;63025;55.472;38.432;2023-06-14T05:59:30;100592.88;;;21.49;40.99
74552;BME280;63025;55.472;38.432;2023-06-14T06:01:56;100585.28;;;21.66;40.77
74552;BME280;63025;55.472;38.432;2023-06-14T06:04:23;100586.13;;;21.77;41.00
74552;BME280;63025;55.472;38.432;2023-06-14T06:06:48;100586.94;;;21.77;39.37
74552;BME280;63025;55.472;38.432;2023-06-14T06:09:14;100597.63;;;21.79;38.37
74552;BME280;63025;55.472;38.432;2023-06-14T06:11:41;100588.03;;;21.81;37.73
74552;BME280;63025;55.472;38.432;2023-06-14T06:14:06;100595.72;;;21.94;38.46
74552;BME280;63025;55.472;38.432;2023-06-14T06:16:32;100592.47;;;21.97;38.42
74552;BME280;63025;55.472;38.432;2023-06-14T06:18:59;100602.91;;;22.06;38.35
74552;BME280;63025;55.472;38.432;2023-06-14T06:21:25;100600.16;;;22.06;37.29
74552;BME280;63025;55.472;38.432;2023-06-14T06:23:51;100595.81;;;22.10;37.83
74552;BME280;63025;55.472;38.432;2023-06-14T06:26:17;100595.53;;;22.16;37.71
74552;BME280;63025;55.472;38.432;2023-06-14T06:28:43;100598.56;;;22.30;37.93
74552;BME280;63025;55.472;38.432;2023-06-14T06:31:08;100587.31;;;22.42;37.48
74552;BME280;63025;55.472;38.432;2023-06-14T06:33:35;100577.19;;;22.37;35.88
74552;BME280;63025;55.472;38.432;2023-06-14T06:36:02;100585.41;;;22.42;35.88
74552;BME280;63025;55.472;38.432;2023-06-14T06:38:28;100581.28;;;22.40;35.56
74552;BME280;63025;55.472;38.432;2023-06-14T06:40:54;100577.97;;;22.43;36.08
74552;BME280;63025;55.472;38.432;2023-06-14T06:43:20;100582.13;;;22.50;35.53
74552;BME280;63025;55.472;38.432;2023-06-14T06:45:48;100592.78;;;22.57;35.11
74552;BME280;63025;55.472;38.432;2023-06-14T06:48:14;100586.75;;;22.65;35.28
74552;BME280;63025;55.472;38.432;2023-06-14T06:50:41;100579.91;;;22.67;34.31
74552;BME280;63025;55.472;38.432;2023-06-14T06:53:07;100582.91;;;22.66;33.46
74552;BME280;63025;55.472;38.432;2023-06-14T06:55:33;100594.97;;;22.70;34.02
74552;BME280;63025;55.472;38.432;2023-06-14T06:57:59;100582.66;;;22.62;34.40
74552;BME280;63025;55.472;38.432;2023-06-14T07:00:26;100581.81;;;22.72;34.80
74552;BME280;63025;55.472;38.432;2023-06-14T07:02:51;100579.91;;;22.78;34.86
74552;BME280;63025;55.472;38.432;2023-06-14T07:05:20;100573.34;;;22.84;35.18
74552;BME280;63025;55.472;38.432;2023-06-14T07:07:46;100568.09;;;22.92;35.20
74552;BME280;63025;55.472;38.432;2023-06-14T07:10:12;100574.66;;;23.01;35.15
74552;BME280;63025;55.472;38.432;2023-06-14T07:12:38;100576.53;;;23.06;34.84
74552;BME280;63025;55.472;38.432;2023-06-14T07:15:06;100571.31;;;23.10;34.12
74552;BME280;63025;55.472;38.432;2023-06-14T07:17:33;100573.78;;;23.06;34.33
74552;BME280;63025;55.472;38.432;2023-06-14T07:20:00;100563.41;;;23.03;34.65
74552;BME280;63025;55.472;38.432;2023-06-14T07:22:26;100570.53;;;23.04;33.86
74552;BME280;63025;55.472;38.432;2023-06-14T07:24:52;100567.75;;;23.14;34.29
74552;BME280;63025;55.472;38.432;2023-06-14T07:27:18;100580.84;;;23.27;34.79
74552;BME280;63025;55.472;38.432;2023-06-14T07:29:43;100574.81;;;23.30;34.20
74552;BME280;63025;55.472;38.432;2023-06-14T07:32:09;100583.28;;;23.39;33.92
74552;BME280;63025;55.472;38.432;2023-06-14T07:34:35;100580.25;;;23.46;32.67
74552;BME280;63025;55.472;38.432;2023-06-14T07:37:01;100570.38;;;23.50;33.60
74552;BME280;63025;55.472;38.432;2023-06-14T07:39:27;100578.59;;;23.55;34.03
74552;BME280;63025;55.472;38.432;2023-06-14T07:41:53;100569.50;;;23.59;33.46
74552;BME280;63025;55.472;38.432;2023-06-14T07:44:19;100567.84;;;23.58;33.27
74552;BME280;63025;55.472;38.432;2023-06-14T07:46:45;100562.06;;;23.65;33.70
74552;BME280;63025;55.472;38.432;2023-06-14T07:49:15;100561.47;;;23.68;33.12
74552;BME280;63025;55.472;38.432;2023-06-14T07:51:41;100577.09;;;23.72;33.02
74552;BME280;63025;55.472;38.432;2023-06-14T07:54:07;100565.59;;;23.70;32.27
74552;BME280;63025;55.472;38.432;2023-06-14T07:56:34;100557.91;;;23.72;32.52
74552;BME280;63025;55.472;38.432;2023-06-14T07:59:01;100559.22;;;23.80;32.26
74552;BME280;63025;55.472;38.432;2023-06-14T08:01:26;100563.00;;;23.89;32.55
74552;BME280;63025;55.472;38.432;2023-06-14T08:03:53;100565.66;;;23.99;32.66
74552;BME280;63025;55.472;38.432;2023-06-14T08:06:19;100568.09;;;24.06;31.31
74552;BME280;63025;55.472;38.432;2023-06-14T08:08:45;100561.75;;;24.10;31.71
74552;BME280;63025;55.472;38.432;2023-06-14T08:11:11;100569.41;;;24.13;31.80
74552;BME280;63025;55.472;38.432;2023-06-14T08:13:37;100571.00;;;24.20;32.05
74552;BME280;63025;55.472;38.432;2023-06-14T08:16:03;100565.00;;;24.18;31.78
74552;BME280;63025;55.472;38.432;2023-06-14T08:18:30;100566.63;;;24.24;31.63
74552;BME280;63025;55.472;38.432;2023-06-14T08:20:56;100561.13;;;24.24;31.27
74552;BME280;63025;55.472;38.432;2023-06-14T08:23:23;100549.34;;;24.18;31.80
74552;BME280;63025;55.472;38.432;2023-06-14T08:25:49;100561.66;;;24.26;32.45
74552;BME280;63025;55.472;38.432;2023-06-14T08:28:15;100554.16;;;24.36;32.38
74552;BME280;63025;55.472;38.432;2023-06-14T08:30:42;100550.00;;;24.39;32.34
74552;BME280;63025;55.472;38.432;2023-06-14T08:33:08;100547.97;;;24.15;31.23
74552;BME280;63025;55.472;38.432;2023-06-14T08:35:34;100555.59;;;24.29;31.88
74552;BME280;63025;55.472;38.432;2023-06-14T08:38:03;100551.06;;;24.43;32.45
74552;BME280;63025;55.472;38.432;2023-06-14T08:40:30;100557.00;;;24.55;32.07
74552;BME280;63025;55.472;38.432;2023-06-14T08:42:56;100548.19;;;24.58;30.91
74552;BME280;63025;55.472;38.432;2023-06-14T08:45:23;100554.50;;;24.82;31.44
74552;BME280;63025;55.472;38.432;2023-06-14T08:47:53;100552.34;;;25.08;31.24
74552;BME280;63025;55.472;38.432;2023-06-14T08:50:24;100558.53;;;25.19;31.66
74552;BME280;63025;55.472;38.432;2023-06-14T08:52:54;100544.38;;;25.49;31.39
74552;BME280;63025;55.472;38.432;2023-06-14T08:55:23;100541.06;;;25.90;29.90
74552;BME280;63025;55.472;38.432;2023-06-14T08:57:57;100545.25;;;26.20;29.23
74552;BME280;63025;55.472;38.432;2023-06-14T09:00:26;100531.72;;;26.69;29.20
74552;BME280;63025;55.472;38.432;2023-06-14T09:02:53;100531.88;;;27.19;28.15
74552;BME280;63025;55.472;38.432;2023-06-14T09:05:26;100527.44;;;27.32;27.37
74552;BME280;63025;55.472;38.432;2023-06-14T09:07:52;100538.84;;;27.53;27.56
74552;BME280;63025;55.472;38.432;2023-06-14T09:10:20;100526.84;;;28.07;26.90
74552;BME280;63025;55.472;38.432;2023-06-14T09:12:46;100523.84;;;28.70;26.43
74552;BME280;63025;55.472;38.432;2023-06-14T09:15:14;100522.97;;;29.49;26.07
74552;BME280;63025;55.472;38.432;2023-06-14T09:17:40;100527.09;;;30.03;25.64
74552;BME280;63025;55.472;38.432;2023-06-14T09:20:08;100530.66;;;30.12;24.45
74552;BME280;63025;55.472;38.432;2023-06-14T09:22:43;100522.94;;;30.61;23.36
74552;BME280;63025;55.472;38.432;2023-06-14T09:25:10;100516.31;;;30.83;22.73
74552;BME280;63025;55.472;38.432;2023-06-14T09:27:37;100519.94;;;31.84;22.97
74552;BME280;63025;55.472;38.432;2023-06-14T09:30:06;100523.56;;;32.38;22.05
74552;BME280;63025;55.472;38.432;2023-06-14T09:32:38;100524.09;;;32.76;21.89
74552;BME280;63025;55.472;38.432;2023-06-14T09:35:08;100522.94;;;33.14;21.68
74552;BME280;63025;55.472;38.432;2023-06-14T09:37:35;100520.94;;;33.63;20.85
74552;BME280;63025;55.472;38.432;2023-06-14T09:40:03;100518.09;;;34.15;19.34
74552;BME280;63025;55.472;38.432;2023-06-14T09:42:31;100505.66;;;35.04;19.30
74552;BME280;63025;55.472;38.432;2023-06-14T09:44:57;100506.19;;;35.25;18.26
74552;BME280;63025;55.472;38.432;2023-06-14T09:47:24;100504.03;;;35.73;18.13
74552;BME280;63025;55.472;38.432;2023-06-14T09:49:51;100501.88;;;35.82;17.15
74552;BME280;63025;55.472;38.432;2023-06-14T09:52:18;100505.94;;;36.26;16.72
74552;BME280;63025;55.472;38.432;2023-06-14T09:54:46;100497.84;;;36.63;16.75
74552;BME280;63025;55.472;38.432;2023-06-14T09:57:17;100501.19;;;36.95;16.27
74552;BME280;63025;55.472;38.432;2023-06-14T09:59:46;100487.19;;;37.22;15.74
74552;BME280;63025;55.472;38.432;2023-06-14T10:02:29;100486.09;;;37.90;15.86
74552;BME280;63025;55.472;38.432;2023-06-14T10:05:04;100487.16;;;38.11;15.15
74552;BME280;63025;55.472;38.432;2023-06-14T10:07:38;100488.38;;;38.10;15.80
74552;BME280;63025;55.472;38.432;2023-06-14T10:10:06;100494.06;;;38.21;15.11
74552;BME280;63025;55.472;38.432;2023-06-14T10:12:32;100490.78;;;38.12;15.56
74552;BME280;63025;55.472;38.432;2023-06-14T10:14:59;100486.06;;;38.19;14.49
74552;BME280;63025;55.472;38.432;2023-06-14T10:17:42;100485.09;;;38.89;15.26
74552;BME280;63025;55.472;38.432;2023-06-14T10:20:32;100479.84;;;38.88;14.89
74552;BME280;63025;55.472;38.432;2023-06-14T10:23:10;100473.66;;;39.19;14.96
74552;BME280;63025;55.472;38.432;2023-06-14T10:25:38;100478.72;;;39.58;14.18
74552;BME280;63025;55.472;38.432;2023-06-14T10:28:18;100472.84;;;39.15;14.87
74552;BME280;63025;55.472;38.432;2023-06-14T10:31:08;100471.00;;;38.82;15.00
74552;BME280;63025;55.472;38.432;2023-06-14T10:33:56;100480.06;;;39.16;14.51
74552;BME280;63025;55.472;38.432;2023-06-14T10:38:57;100469.13;;;39.77;13.85
74552;BME280;63025;55.472;38.432;2023-06-14T10:41:26;100466.84;;;40.04;13.07
74552;BME280;63025;55.472;38.432;2023-06-14T10:44:09;100478.97;;;40.40;12.98
74552;BME280;63025;55.472;38.432;2023-06-14T10:46:36;100466.91;;;40.39;13.05
74552;BME280;63025;55.472;38.432;2023-06-14T10:49:01;100464.50;;;40.41;13.22
74552;BME280;63025;55.472;38.432;2023-06-14T10:51:29;100457.28;;;40.72;13.71
74552;BME280;63025;55.472;38.432;2023-06-14T10:53:59;100453.53;;;41.35;13.18
74552;BME280;63025;55.472;38.432;2023-06-14T10:56:28;100453.19;;;41.12;12.83
74552;BME280;63025;55.472;38.432;2023-06-14T10:58:56;100454.81;;;41.17;13.40
74552;BME280;63025;55.472;38.432;2023-06-14T11:02:09;100447.97;;;41.14;13.50
74552;BME280;63025;55.472;38.432;2023-06-14T11:04:52;100454.03;;;40.63;13.49
74552;BME280;63025;55.472;38.432;2023-06-14T11:10:06;100436.19;;;41.33;12.70
74552;BME280;63025;55.472;38.432;2023-06-14T11:12:36;100437.91;;;40.99;12.77
74552;BME280;63025;55.472;38.432;2023-06-14T11:15:05;100438.72;;;40.89;13.30
74552;BME280;63025;55.472;38.432;2023-06-14T11:17:32;100437.13;;;40.42;13.49
74552;BME280;63025;55.472;38.432;2023-06-14T11:20:12;100443.16;;;40.33;13.47
74552;BME280;63025;55.472;38.432;2023-06-14T11:22:44;100444.38;;;40.43;13.81
74552;BME280;63025;55.472;38.432;2023-06-14T11:25:14;100438.72;;;40.67;13.77
74552;BME280;63025;55.472;38.432;2023-06-14T11:27:43;100437.06;;;40.03;13.48
74552;BME280;63025;55.472;38.432;2023-06-14T11:30:10;100434.63;;;40.08;13.13
74552;BME280;63025;55.472;38.432;2023-06-14T11:32:37;100433.50;;;40.34;13.49
74552;BME280;63025;55.472;38.432;2023-06-14T11:35:04;100438.34;;;40.58;13.41
74552;BME280;63025;55.472;38.432;2023-06-14T11:37:33;100429.78;;;39.98;13.21
74552;BME280;63025;55.472;38.432;2023-06-14T11:39:59;100427.38;;;40.00;13.66
74552;BME280;63025;55.472;38.432;2023-06-14T11:42:28;100424.19;;;40.09;13.41
74552;BME280;63025;55.472;38.432;2023-06-14T11:44:54;100428.25;;;40.40;13.26
74552;BME280;63025;55.472;38.432;2023-06-14T11:47:20;100430.63;;;41.09;12.96
74552;BME280;63025;55.472;38.432;2023-06-14T11:49:47;100426.66;;;40.49;12.45
74552;BME280;63025;55.472;38.432;2023-06-14T11:52:13;100408.78;;;39.63;12.39
74552;BME280;63025;55.472;38.432;2023-06-14T11:54:40;100422.97;;;40.10;13.19
74552;BME280;63025;55.472;38.432;2023-06-14T11:57:09;100414.50;;;39.85;12.83
74552;BME280;63025;55.472;38.432;2023-06-14T11:59:40;100408.47;;;39.93;13.03
74552;BME280;63025;55.472;38.432;2023-06-14T12:02:07;100409.72;;;40.24;12.65
74552;BME280;63025;55.472;38.432;2023-06-14T12:04:33;100401.69;;;40.65;12.99
74552;BME280;63025;55.472;38.432;2023-06-14T12:07:12;100399.19;;;41.21;12.66
74552;BME280;63025;55.472;38.432;2023-06-14T12:12:25;100396.88;;;40.45;12.57
74552;BME280;63025;55.472;38.432;2023-06-14T12:14:52;100395.66;;;40.49;12.98
74552;BME280;63025;55.472;38.432;2023-06-14T12:17:18;100384.38;;;40.53;12.76
74552;BME280;63025;55.472;38.432;2023-06-14T12:19:46;100391.63;;;40.50;12.76
74552;BME280;63025;55.472;38.432;2023-06-14T12:22:13;100397.25;;;40.79;12.88
74552;BME280;63025;55.472;38.432;2023-06-14T12:24:42;100381.94;;;40.87;12.80
74552;BME280;63025;55.472;38.432;2023-06-14T12:27:09;100391.03;;;41.37;12.63
74552;BME280;63025;55.472;38.432;2023-06-14T12:29:37;100388.13;;;41.62;12.71
74552;BME280;63025;55.472;38.432;2023-06-14T12:32:03;100390.41;;;40.58;12.75
74552;BME280;63025;55.472;38.432;2023-06-14T12:34:29;100386.00;;;40.29;13.02
74552;BME280;63025;55.472;38.432;2023-06-14T12:36:56;100388.81;;;40.57;12.84
74552;BME280;63025;55.472;38.432;2023-06-14T12:39:23;100382.34;;;40.67;13.18
74552;BME280;63025;55.472;38.432;2023-06-14T12:41:50;100381.56;;;40.56;13.46
74552;BME280;63025;55.472;38.432;2023-06-14T12:44:16;100376.72;;;39.96;13.43
74552;BME280;63025;55.472;38.432;2023-06-14T12:46:42;100388.28;;;39.67;13.49
74552;BME280;63025;55.472;38.432;2023-06-14T12:49:10;100375.69;;;39.36;13.28
74552;BME280;63025;55.472;38.432;2023-06-14T12:51:37;100389.88;;;39.68;14.20
74552;BME280;63025;55.472;38.432;2023-06-14T12:54:04;100380.75;;;40.17;13.42
74552;BME280;63025;55.472;38.432;2023-06-14T12:56:29;100365.47;;;40.46;13.04